sensor_id;sensor_type;location;lat;lon;timestamp;P1;P2;P0
71858;PMS5003;59713;50.866;4.324;2024-02-26T00:00:34;5;3;
71858;PMS5003;59713;50.866;4.324;2024-02-26T00:00:35;5;3;
71858;PMS5003;59713;50.866;4.324;2024-02-26T00:01:35;5;3;
71858;PMS5003;59713;50.866;4.324;2024-02-26T00:02:34;3;3;
71858;PMS5003;59713;50.866;4.324;2024-02-26T00:03:34;3;3;
71858;PMS5003;59713;50.866;4.324;2024-02-26T00:04:34;3;3;
71858;PMS5003;59713;50.866;4.324;2024-02-26T00:05:35;2;2;
71858;PMS5003;59713;50.866;4.324;2024-02-26T00:06:35;2;2;
71858;PMS5003;59713;50.866;4.324;2024-02-26T00:07:34;2;2;
71858;PMS5003;59713;50.866;4.324;2024-02-26T00:08:34;3;3;
71858;PMS5003;59713;50.866;4.324;2024-02-26T00:09:35;3;3;
71858;PMS5003;59713;50.866;4.324;2024-02-26T00:10:35;3;3;
71858;PMS5003;59713;50.866;4.324;2024-02-26T00:10:35;3;3;
71858;PMS5003;59713;50.866;4.324;2024-02-26T00:11:35;3;3;
71858;PMS5003;59713;50.866;4.324;2024-02-26T00:12:35;3;3;
71858;PMS5003;59713;50.866;4.324;2024-02-26T00:13:35;3;3;
71858;PMS5003;59713;50.866;4.324;2024-02-26T00:14:35;3;3;
71858;PMS5003;59713;50.866;4.324;2024-02-26T00:15:35;3;3;
71858;PMS5003;59713;50.866;4.324;2024-02-26T00:16:35;3;3;
71858;PMS5003;59713;50.866;4.324;2024-02-26T00:17:34;2;2;
71858;PMS5003;59713;50.866;4.324;2024-02-26T00:18:35;2;2;
71858;PMS5003;59713;50.866;4.324;2024-02-26T00:19:35;2;2;
71858;PMS5003;59713;50.866;4.324;2024-02-26T00:19:35;2;2;
71858;PMS5003;59713;50.866;4.324;2024-02-26T00:20:35;4;4;
71858;PMS5003;59713;50.866;4.324;2024-02-26T00:21:35;4;4;
71858;PMS5003;59713;50.866;4.324;2024-02-26T00:22:35;4;4;
71858;PMS5003;59713;50.866;4.324;2024-02-26T00:23:36;5;3;
71858;PMS5003;59713;50.866;4.324;2024-02-26T00:24:35;5;3;
71858;PMS5003;59713;50.866;4.324;2024-02-26T00:25:35;5;3;
71858;PMS5003;59713;50.866;4.324;2024-02-26T00:26:36;2;2;
71858;PMS5003;59713;50.866;4.324;2024-02-26T00:27:35;2;2;
71858;PMS5003;59713;50.866;4.324;2024-02-26T00:28:36;2;2;
71858;PMS5003;59713;50.866;4.324;2024-02-26T00:28:36;2;2;
71858;PMS5003;59713;50.866;4.324;2024-02-26T00:29:35;3;3;
71858;PMS5003;59713;50.866;4.324;2024-02-26T00:30:35;3;3;
71858;PMS5003;59713;50.866;4.324;2024-02-26T00:31:36;3;3;
71858;PMS5003;59713;50.866;4.324;2024-02-26T00:32:35;5;4;
71858;PMS5003;59713;50.866;4.324;2024-02-26T00:33:35;5;4;
71858;PMS5003;59713;50.866;4.324;2024-02-26T00:34:35;5;4;
71858;PMS5003;59713;50.866;4.324;2024-02-26T00:35:35;4;4;
71858;PMS5003;59713;50.866;4.324;2024-02-26T00:36:35;4;4;
71858;PMS5003;59713;50.866;4.324;2024-02-26T00:37:35;4;4;
71858;PMS5003;59713;50.866;4.324;2024-02-26T00:38:35;4;4;
71858;PMS5003;59713;50.866;4.324;2024-02-26T00:39:35;4;4;
71858;PMS5003;59713;50.866;4.324;2024-02-26T00:40:35;4;4;
71858;PMS5003;59713;50.866;4.324;2024-02-26T00:41:37;4;3;
71858;PMS5003;59713;50.866;4.324;2024-02-26T00:42:35;4;3;
71858;PMS5003;59713;50.866;4.324;2024-02-26T00:43:35;4;3;
71858;PMS5003;59713;50.866;4.324;2024-02-26T00:44:35;3;3;
71858;PMS5003;59713;50.866;4.324;2024-02-26T00:45:35;3;3;
71858;PMS5003;59713;50.866;4.324;2024-02-26T00:46:35;3;3;
71858;PMS5003;59713;50.866;4.324;2024-02-26T00:47:35;4;3;
71858;PMS5003;59713;50.866;4.324;2024-02-26T00:48:35;4;3;
71858;PMS5003;59713;50.866;4.324;2024-02-26T00:49:35;4;3;
71858;PMS5003;59713;50.866;4.324;2024-02-26T00:50:35;4;4;
71858;PMS5003;59713;50.866;4.324;2024-02-26T00:51:35;4;4;
71858;PMS5003;59713;50.866;4.324;2024-02-26T00:52:35;4;4;
71858;PMS5003;59713;50.866;4.324;2024-02-26T00:53:35;4;4;
71858;PMS5003;59713;50.866;4.324;2024-02-26T00:54:36;4;4;
71858;PMS5003;59713;50.866;4.324;2024-02-26T00:55:35;4;4;
71858;PMS5003;59713;50.866;4.324;2024-02-26T00:56:35;2;2;
71858;PMS5003;59713;50.866;4.324;2024-02-26T00:57:35;2;2;
71858;PMS5003;59713;50.866;4.324;2024-02-26T00:57:35;2;2;
71858;PMS5003;59713;50.866;4.324;2024-02-26T00:58:36;2;2;
71858;PMS5003;59713;50.866;4.324;2024-02-26T00:59:35;3;3;
71858;PMS5003;59713;50.866;4.324;2024-02-26T01:00:35;3;3;
71858;PMS5003;59713;50.866;4.324;2024-02-26T01:01:35;3;3;
71858;PMS5003;59713;50.866;4.324;2024-02-26T01:02:36;3;2;
71858;PMS5003;59713;50.866;4.324;2024-02-26T01:03:35;3;2;
71858;PMS5003;59713;50.866;4.324;2024-02-26T01:04:35;3;2;
71858;PMS5003;59713;50.866;4.324;2024-02-26T01:05:35;3;3;
71858;PMS5003;59713;50.866;4.324;2024-02-26T01:06:35;3;3;
71858;PMS5003;59713;50.866;4.324;2024-02-26T01:06:35;3;3;
71858;PMS5003;59713;50.866;4.324;2024-02-26T01:07:35;3;3;
71858;PMS5003;59713;50.866;4.324;2024-02-26T01:08:35;3;3;
71858;PMS5003;59713;50.866;4.324;2024-02-26T01:09:35;3;3;
71858;PMS5003;59713;50.866;4.324;2024-02-26T01:10:35;3;3;
71858;PMS5003;59713;50.866;4.324;2024-02-26T01:11:35;2;2;
71858;PMS5003;59713;50.866;4.324;2024-02-26T01:12:35;2;2;
71858;PMS5003;59713;50.866;4.324;2024-02-26T01:13:35;2;2;
71858;PMS5003;59713;50.866;4.324;2024-02-26T01:14:35;3;3;
71858;PMS5003;59713;50.866;4.324;2024-02-26T01:15:35;3;3;
71858;PMS5003;59713;50.866;4.324;2024-02-26T01:16:35;3;3;
71858;PMS5003;59713;50.866;4.324;2024-02-26T01:17:35;2;2;
71858;PMS5003;59713;50.866;4.324;2024-02-26T01:18:35;2;2;
71858;PMS5003;59713;50.866;4.324;2024-02-26T01:19:35;2;2;
71858;PMS5003;59713;50.866;4.324;2024-02-26T01:20:35;2;2;
71858;PMS5003;59713;50.866;4.324;2024-02-26T01:21:35;2;2;
71858;PMS5003;59713;50.866;4.324;2024-02-26T01:22:35;2;2;
71858;PMS5003;59713;50.866;4.324;2024-02-26T01:23:35;2;2;
71858;PMS5003;59713;50.866;4.324;2024-02-26T01:24:35;2;2;
71858;PMS5003;59713;50.866;4.324;2024-02-26T01:24:35;2;2;
71858;PMS5003;59713;50.866;4.324;2024-02-26T01:25:35;2;2;
71858;PMS5003;59713;50.866;4.324;2024-02-26T01:26:35;3;3;
71858;PMS5003;59713;50.866;4.324;2024-02-26T01:27:35;3;3;
71858;PMS5003;59713;50.866;4.324;2024-02-26T01:28:35;3;3;
71858;PMS5003;59713;50.866;4.324;2024-02-26T01:29:35;4;3;
71858;PMS5003;59713;50.866;4.324;2024-02-26T01:30:35;4;3;
71858;PMS5003;59713;50.866;4.324;2024-02-26T01:31:35;4;3;
71858;PMS5003;59713;50.866;4.324;2024-02-26T01:32:35;5;3;
71858;PMS5003;59713;50.866;4.324;2024-02-26T01:33:35;5;3;
71858;PMS5003;59713;50.866;4.324;2024-02-26T01:34:35;5;3;
71858;PMS5003;59713;50.866;4.324;2024-02-26T01:34:35;5;3;
71858;PMS5003;59713;50.866;4.324;2024-02-26T01:35:35;4;4;
71858;PMS5003;59713;50.866;4.324;2024-02-26T01:36:35;4;4;
71858;PMS5003;59713;50.866;4.324;2024-02-26T01:37:35;4;4;
71858;PMS5003;59713;50.866;4.324;2024-02-26T01:38:35;3;3;
71858;PMS5003;59713;50.866;4.324;2024-02-26T01:39:35;3;3;
71858;PMS5003;59713;50.866;4.324;2024-02-26T01:40:35;3;3;
71858;PMS5003;59713;50.866;4.324;2024-02-26T01:41:35;3;3;
71858;PMS5003;59713;50.866;4.324;2024-02-26T01:42:36;3;3;
71858;PMS5003;59713;50.866;4.324;2024-02-26T01:43:35;3;3;
71858;PMS5003;59713;50.866;4.324;2024-02-26T01:43:35;3;3;
71858;PMS5003;59713;50.866;4.324;2024-02-26T01:44:35;4;3;
71858;PMS5003;59713;50.866;4.324;2024-02-26T01:45:35;4;3;
71858;PMS5003;59713;50.866;4.324;2024-02-26T01:46:36;4;3;
71858;PMS5003;59713;50.866;4.324;2024-02-26T01:47:35;4;3;
71858;PMS5003;59713;50.866;4.324;2024-02-26T01:48:35;4;3;
71858;PMS5003;59713;50.866;4.324;2024-02-26T01:49:35;4;3;
71858;PMS5003;59713;50.866;4.324;2024-02-26T01:50:35;2;2;
71858;PMS5003;59713;50.866;4.324;2024-02-26T01:51:35;2;2;
71858;PMS5003;59713;50.866;4.324;2024-02-26T01:52:35;2;2;
71858;PMS5003;59713;50.866;4.324;2024-02-26T01:52:35;2;2;
71858;PMS5003;59713;50.866;4.324;2024-02-26T01:53:35;3;3;
71858;PMS5003;59713;50.866;4.324;2024-02-26T01:54:35;3;3;
71858;PMS5003;59713;50.866;4.324;2024-02-26T01:55:35;3;3;
71858;PMS5003;59713;50.866;4.324;2024-02-26T01:56:35;5;4;
71858;PMS5003;59713;50.866;4.324;2024-02-26T01:57:35;5;4;
71858;PMS5003;59713;50.866;4.324;2024-02-26T01:58:35;5;4;
71858;PMS5003;59713;50.866;4.324;2024-02-26T01:59:35;4;3;
71858;PMS5003;59713;50.866;4.324;2024-02-26T02:00:35;4;3;
71858;PMS5003;59713;50.866;4.324;2024-02-26T02:01:35;4;3;
71858;PMS5003;59713;50.866;4.324;2024-02-26T02:02:35;2;2;
71858;PMS5003;59713;50.866;4.324;2024-02-26T02:02:35;2;2;
71858;PMS5003;59713;50.866;4.324;2024-02-26T02:03:35;2;2;
71858;PMS5003;59713;50.866;4.324;2024-02-26T02:04:35;2;2;
71858;PMS5003;59713;50.866;4.324;2024-02-26T02:05:35;4;4;
71858;PMS5003;59713;50.866;4.324;2024-02-26T02:06:35;4;4;
71858;PMS5003;59713;50.866;4.324;2024-02-26T02:07:35;4;4;
71858;PMS5003;59713;50.866;4.324;2024-02-26T02:08:35;2;2;
71858;PMS5003;59713;50.866;4.324;2024-02-26T02:09:35;2;2;
71858;PMS5003;59713;50.866;4.324;2024-02-26T02:10:35;2;2;
71858;PMS5003;59713;50.866;4.324;2024-02-26T02:11:35;3;3;
71858;PMS5003;59713;50.866;4.324;2024-02-26T02:11:35;3;3;
71858;PMS5003;59713;50.866;4.324;2024-02-26T02:12:35;3;3;
71858;PMS5003;59713;50.866;4.324;2024-02-26T02:13:35;3;3;
71858;PMS5003;59713;50.866;4.324;2024-02-26T02:14:35;2;2;
71858;PMS5003;59713;50.866;4.324;2024-02-26T02:15:35;2;2;
71858;PMS5003;59713;50.866;4.324;2024-02-26T02:16:35;2;2;
71858;PMS5003;59713;50.866;4.324;2024-02-26T02:17:35;2;2;
71858;PMS5003;59713;50.866;4.324;2024-02-26T02:18:35;2;2;
71858;PMS5003;59713;50.866;4.324;2024-02-26T02:19:35;2;2;
71858;PMS5003;59713;50.866;4.324;2024-02-26T02:20:35;4;3;
71858;PMS5003;59713;50.866;4.324;2024-02-26T02:20:35;4;3;
71858;PMS5003;59713;50.866;4.324;2024-02-26T02:21:35;4;3;
71858;PMS5003;59713;50.866;4.324;2024-02-26T02:22:35;4;3;
71858;PMS5003;59713;50.866;4.324;2024-02-26T02:23:35;2;2;
71858;PMS5003;59713;50.866;4.324;2024-02-26T02:24:35;2;2;
71858;PMS5003;59713;50.866;4.324;2024-02-26T02:25:35;2;2;
71858;PMS5003;59713;50.866;4.324;2024-02-26T02:26:35;2;2;
71858;PMS5003;59713;50.866;4.324;2024-02-26T02:27:35;2;2;
71858;PMS5003;59713;50.866;4.324;2024-02-26T02:28:35;2;2;
71858;PMS5003;59713;50.866;4.324;2024-02-26T02:29:35;2;2;
71858;PMS5003;59713;50.866;4.324;2024-02-26T02:29:35;2;2;
71858;PMS5003;59713;50.866;4.324;2024-02-26T02:30:35;2;2;
71858;PMS5003;59713;50.866;4.324;2024-02-26T02:31:35;2;2;
71858;PMS5003;59713;50.866;4.324;2024-02-26T02:32:35;2;2;
71858;PMS5003;59713;50.866;4.324;2024-02-26T02:33:35;2;2;
71858;PMS5003;59713;50.866;4.324;2024-02-26T02:34:35;2;2;
71858;PMS5003;59713;50.866;4.324;2024-02-26T02:35:35;4;2;
71858;PMS5003;59713;50.866;4.324;2024-02-26T02:36:35;4;2;
71858;PMS5003;59713;50.866;4.324;2024-02-26T02:37:35;4;2;
71858;PMS5003;59713;50.866;4.324;2024-02-26T02:38:35;3;2;
71858;PMS5003;59713;50.866;4.324;2024-02-26T02:39:35;3;2;
71858;PMS5003;59713;50.866;4.324;2024-02-26T02:39:35;3;2;
71858;PMS5003;59713;50.866;4.324;2024-02-26T02:40:35;3;2;
71858;PMS5003;59713;50.866;4.324;2024-02-26T02:41:35;3;3;
71858;PMS5003;59713;50.866;4.324;2024-02-26T02:42:35;3;3;
71858;PMS5003;59713;50.866;4.324;2024-02-26T02:43:35;3;3;
71858;PMS5003;59713;50.866;4.324;2024-02-26T02:44:35;1;1;
71858;PMS5003;59713;50.866;4.324;2024-02-26T02:45:35;1;1;
71858;PMS5003;59713;50.866;4.324;2024-02-26T02:46:35;1;1;
71858;PMS5003;59713;50.866;4.324;2024-02-26T02:47:35;1;1;
71858;PMS5003;59713;50.866;4.324;2024-02-26T02:48:35;1;1;
71858;PMS5003;59713;50.866;4.324;2024-02-26T02:49:35;1;1;
71858;PMS5003;59713;50.866;4.324;2024-02-26T02:49:35;1;1;
71858;PMS5003;59713;50.866;4.324;2024-02-26T02:50:35;3;3;
71858;PMS5003;59713;50.866;4.324;2024-02-26T02:51:35;3;3;
71858;PMS5003;59713;50.866;4.324;2024-02-26T02:52:35;3;3;
71858;PMS5003;59713;50.866;4.324;2024-02-26T02:53:35;5;3;
71858;PMS5003;59713;50.866;4.324;2024-02-26T02:54:35;5;3;
71858;PMS5003;59713;50.866;4.324;2024-02-26T02:55:35;5;3;
71858;PMS5003;59713;50.866;4.324;2024-02-26T02:56:35;1;1;
71858;PMS5003;59713;50.866;4.324;2024-02-26T02:57:35;1;1;
71858;PMS5003;59713;50.866;4.324;2024-02-26T02:58:35;1;1;
71858;PMS5003;59713;50.866;4.324;2024-02-26T02:58:35;1;1;
71858;PMS5003;59713;50.866;4.324;2024-02-26T02:59:35;2;2;
71858;PMS5003;59713;50.866;4.324;2024-02-26T03:00:35;2;2;
71858;PMS5003;59713;50.866;4.324;2024-02-26T03:01:35;2;2;
71858;PMS5003;59713;50.866;4.324;2024-02-26T03:02:35;3;3;
71858;PMS5003;59713;50.866;4.324;2024-02-26T03:03:35;3;3;
71858;PMS5003;59713;50.866;4.324;2024-02-26T03:04:35;3;3;
71858;PMS5003;59713;50.866;4.324;2024-02-26T03:05:35;1;1;
71858;PMS5003;59713;50.866;4.324;2024-02-26T03:06:35;1;1;
71858;PMS5003;59713;50.866;4.324;2024-02-26T03:07:35;1;1;
71858;PMS5003;59713;50.866;4.324;2024-02-26T03:07:35;1;1;
71858;PMS5003;59713;50.866;4.324;2024-02-26T03:08:35;3;2;
71858;PMS5003;59713;50.866;4.324;2024-02-26T03:09:35;3;2;
71858;PMS5003;59713;50.866;4.324;2024-02-26T03:10:35;3;2;
71858;PMS5003;59713;50.866;4.324;2024-02-26T03:11:35;4;2;
71858;PMS5003;59713;50.866;4.324;2024-02-26T03:12:35;4;2;
71858;PMS5003;59713;50.866;4.324;2024-02-26T03:13:35;4;2;
71858;PMS5003;59713;50.866;4.324;2024-02-26T03:14:35;3;3;
71858;PMS5003;59713;50.866;4.324;2024-02-26T03:15:35;3;3;
71858;PMS5003;59713;50.866;4.324;2024-02-26T03:16:35;3;3;
71858;PMS5003;59713;50.866;4.324;2024-02-26T03:16:35;3;3;
71858;PMS5003;59713;50.866;4.324;2024-02-26T03:17:35;1;1;
71858;PMS5003;59713;50.866;4.324;2024-02-26T03:18:35;1;1;
71858;PMS5003;59713;50.866;4.324;2024-02-26T03:19:35;1;1;
71858;PMS5003;59713;50.866;4.324;2024-02-26T03:20:35;3;3;
71858;PMS5003;59713;50.866;4.324;2024-02-26T03:21:35;3;3;
71858;PMS5003;59713;50.866;4.324;2024-02-26T03:22:35;3;3;
71858;PMS5003;59713;50.866;4.324;2024-02-26T03:23:35;1;1;
71858;PMS5003;59713;50.866;4.324;2024-02-26T03:24:35;1;1;
71858;PMS5003;59713;50.866;4.324;2024-02-26T03:25:35;1;1;
71858;PMS5003;59713;50.866;4.324;2024-02-26T03:25:35;1;1;
71858;PMS5003;59713;50.866;4.324;2024-02-26T03:26:35;2;2;
71858;PMS5003;59713;50.866;4.324;2024-02-26T03:27:35;2;2;
71858;PMS5003;59713;50.866;4.324;2024-02-26T03:28:35;2;2;
71858;PMS5003;59713;50.866;4.324;2024-02-26T03:29:35;2;2;
71858;PMS5003;59713;50.866;4.324;2024-02-26T03:30:35;2;2;
71858;PMS5003;59713;50.866;4.324;2024-02-26T03:31:35;2;2;
71858;PMS5003;59713;50.866;4.324;2024-02-26T03:32:35;3;3;
71858;PMS5003;59713;50.866;4.324;2024-02-26T03:33:35;3;3;
71858;PMS5003;59713;50.866;4.324;2024-02-26T03:34:35;3;3;
71858;PMS5003;59713;50.866;4.324;2024-02-26T03:35:35;3;2;
71858;PMS5003;59713;50.866;4.324;2024-02-26T03:36:35;3;2;
71858;PMS5003;59713;50.866;4.324;2024-02-26T03:37:35;3;2;
71858;PMS5003;59713;50.866;4.324;2024-02-26T03:38:35;3;2;
71858;PMS5003;59713;50.866;4.324;2024-02-26T03:39:35;3;2;
71858;PMS5003;59713;50.866;4.324;2024-02-26T03:40:35;3;2;
71858;PMS5003;59713;50.866;4.324;2024-02-26T03:41:35;4;3;
71858;PMS5003;59713;50.866;4.324;2024-02-26T03:42:35;4;3;
71858;PMS5003;59713;50.866;4.324;2024-02-26T03:43:35;4;3;
71858;PMS5003;59713;50.866;4.324;2024-02-26T03:43:35;4;3;
71858;PMS5003;59713;50.866;4.324;2024-02-26T03:44:35;2;2;
71858;PMS5003;59713;50.866;4.324;2024-02-26T03:45:35;2;2;
71858;PMS5003;59713;50.866;4.324;2024-02-26T03:46:35;2;2;
71858;PMS5003;59713;50.866;4.324;2024-02-26T03:47:35;2;2;
71858;PMS5003;59713;50.866;4.324;2024-02-26T03:48:35;2;2;
71858;PMS5003;59713;50.866;4.324;2024-02-26T03:49:35;2;2;
71858;PMS5003;59713;50.866;4.324;2024-02-26T03:50:35;5;3;
71858;PMS5003;59713;50.866;4.324;2024-02-26T03:51:35;5;3;
71858;PMS5003;59713;50.866;4.324;2024-02-26T03:52:35;5;3;
71858;PMS5003;59713;50.866;4.324;2024-02-26T03:52:35;5;3;
71858;PMS5003;59713;50.866;4.324;2024-02-26T03:53:35;2;2;
71858;PMS5003;59713;50.866;4.324;2024-02-26T03:54:35;2;2;
71858;PMS5003;59713;50.866;4.324;2024-02-26T03:55:35;2;2;
71858;PMS5003;59713;50.866;4.324;2024-02-26T03:56:35;2;2;
71858;PMS5003;59713;50.866;4.324;2024-02-26T03:57:35;2;2;
71858;PMS5003;59713;50.866;4.324;2024-02-26T03:58:35;2;2;
71858;PMS5003;59713;50.866;4.324;2024-02-26T03:59:35;3;3;
71858;PMS5003;59713;50.866;4.324;2024-02-26T04:00:35;3;3;
71858;PMS5003;59713;50.866;4.324;2024-02-26T04:01:35;3;3;
71858;PMS5003;59713;50.866;4.324;2024-02-26T04:01:35;3;3;
71858;PMS5003;59713;50.866;4.324;2024-02-26T04:02:35;3;3;
71858;PMS5003;59713;50.866;4.324;2024-02-26T04:03:35;3;3;
71858;PMS5003;59713;50.866;4.324;2024-02-26T04:04:35;3;3;
71858;PMS5003;59713;50.866;4.324;2024-02-26T04:05:35;5;5;
71858;PMS5003;59713;50.866;4.324;2024-02-26T04:06:35;5;5;
71858;PMS5003;59713;50.866;4.324;2024-02-26T04:07:35;5;5;
71858;PMS5003;59713;50.866;4.324;2024-02-26T04:08:36;5;3;
71858;PMS5003;59713;50.866;4.324;2024-02-26T04:09:35;5;3;
71858;PMS5003;59713;50.866;4.324;2024-02-26T04:10:35;5;3;
71858;PMS5003;59713;50.866;4.324;2024-02-26T04:10:35;5;3;
71858;PMS5003;59713;50.866;4.324;2024-02-26T04:11:35;5;5;
71858;PMS5003;59713;50.866;4.324;2024-02-26T04:12:35;5;5;
71858;PMS5003;59713;50.866;4.324;2024-02-26T04:13:35;5;5;
71858;PMS5003;59713;50.866;4.324;2024-02-26T04:14:35;6;6;
71858;PMS5003;59713;50.866;4.324;2024-02-26T04:15:35;6;6;
71858;PMS5003;59713;50.866;4.324;2024-02-26T04:16:35;6;6;
71858;PMS5003;59713;50.866;4.324;2024-02-26T04:17:35;3;3;
71858;PMS5003;59713;50.866;4.324;2024-02-26T04:18:35;3;3;
71858;PMS5003;59713;50.866;4.324;2024-02-26T04:19:35;3;3;
71858;PMS5003;59713;50.866;4.324;2024-02-26T04:19:35;3;3;
71858;PMS5003;59713;50.866;4.324;2024-02-26T04:20:35;4;2;
71858;PMS5003;59713;50.866;4.324;2024-02-26T04:21:35;4;2;
71858;PMS5003;59713;50.866;4.324;2024-02-26T04:22:35;4;2;
71858;PMS5003;59713;50.866;4.324;2024-02-26T04:23:35;4;4;
71858;PMS5003;59713;50.866;4.324;2024-02-26T04:24:35;4;4;
71858;PMS5003;59713;50.866;4.324;2024-02-26T04:25:35;4;4;
71858;PMS5003;59713;50.866;4.324;2024-02-26T04:26:35;7;6;
71858;PMS5003;59713;50.866;4.324;2024-02-26T04:27:35;7;6;
71858;PMS5003;59713;50.866;4.324;2024-02-26T04:28:35;7;6;
71858;PMS5003;59713;50.866;4.324;2024-02-26T04:29:35;7;7;
71858;PMS5003;59713;50.866;4.324;2024-02-26T04:29:35;7;7;
71858;PMS5003;59713;50.866;4.324;2024-02-26T04:30:35;7;7;
71858;PMS5003;59713;50.866;4.324;2024-02-26T04:31:36;7;7;
71858;PMS5003;59713;50.866;4.324;2024-02-26T04:32:35;7;6;
71858;PMS5003;59713;50.866;4.324;2024-02-26T04:33:35;7;6;
71858;PMS5003;59713;50.866;4.324;2024-02-26T04:34:35;7;6;
71858;PMS5003;59713;50.866;4.324;2024-02-26T04:35:35;8;7;
71858;PMS5003;59713;50.866;4.324;2024-02-26T04:36:35;8;7;
71858;PMS5003;59713;50.866;4.324;2024-02-26T04:37:35;8;7;
71858;PMS5003;59713;50.866;4.324;2024-02-26T04:38:35;7;7;
71858;PMS5003;59713;50.866;4.324;2024-02-26T04:38:35;7;7;
71858;PMS5003;59713;50.866;4.324;2024-02-26T04:39:35;7;7;
71858;PMS5003;59713;50.866;4.324;2024-02-26T04:40:35;7;7;
71858;PMS5003;59713;50.866;4.324;2024-02-26T04:41:35;4;4;
71858;PMS5003;59713;50.866;4.324;2024-02-26T04:42:35;4;4;
71858;PMS5003;59713;50.866;4.324;2024-02-26T04:43:35;4;4;
71858;PMS5003;59713;50.866;4.324;2024-02-26T04:44:35;8;8;
71858;PMS5003;59713;50.866;4.324;2024-02-26T04:45:35;8;8;
71858;PMS5003;59713;50.866;4.324;2024-02-26T04:46:35;8;8;
71858;PMS5003;59713;50.866;4.324;2024-02-26T04:47:35;7;7;
71858;PMS5003;59713;50.866;4.324;2024-02-26T04:47:35;7;7;
71858;PMS5003;59713;50.866;4.324;2024-02-26T04:48:35;7;7;
71858;PMS5003;59713;50.866;4.324;2024-02-26T04:49:35;7;7;
71858;PMS5003;59713;50.866;4.324;2024-02-26T04:50:35;7;7;
71858;PMS5003;59713;50.866;4.324;2024-02-26T04:51:35;7;7;
71858;PMS5003;59713;50.866;4.324;2024-02-26T04:52:36;7;7;
71858;PMS5003;59713;50.866;4.324;2024-02-26T04:53:35;7;7;
71858;PMS5003;59713;50.866;4.324;2024-02-26T04:54:35;7;7;
71858;PMS5003;59713;50.866;4.324;2024-02-26T04:55:35;7;7;
71858;PMS5003;59713;50.866;4.324;2024-02-26T04:56:35;7;7;
71858;PMS5003;59713;50.866;4.324;2024-02-26T04:57:35;7;7;
71858;PMS5003;59713;50.866;4.324;2024-02-26T04:57:35;7;7;
71858;PMS5003;59713;50.866;4.324;2024-02-26T04:58:35;7;7;
71858;PMS5003;59713;50.866;4.324;2024-02-26T04:59:35;7;6;
71858;PMS5003;59713;50.866;4.324;2024-02-26T05:00:35;7;6;
71858;PMS5003;59713;50.866;4.324;2024-02-26T05:01:35;7;6;
71858;PMS5003;59713;50.866;4.324;2024-02-26T05:02:35;5;4;
71858;PMS5003;59713;50.866;4.324;2024-02-26T05:03:35;5;4;
71858;PMS5003;59713;50.866;4.324;2024-02-26T05:04:35;5;4;
71858;PMS5003;59713;50.866;4.324;2024-02-26T05:05:35;8;7;
71858;PMS5003;59713;50.866;4.324;2024-02-26T05:06:36;8;7;
71858;PMS5003;59713;50.866;4.324;2024-02-26T05:06:36;8;7;
71858;PMS5003;59713;50.866;4.324;2024-02-26T05:07:39;8;7;
71858;PMS5003;59713;50.866;4.324;2024-02-26T05:08:35;10;10;
71858;PMS5003;59713;50.866;4.324;2024-02-26T05:09:35;10;10;
71858;PMS5003;59713;50.866;4.324;2024-02-26T05:10:35;10;10;
71858;PMS5003;59713;50.866;4.324;2024-02-26T05:11:35;10;10;
71858;PMS5003;59713;50.866;4.324;2024-02-26T05:12:35;10;10;
71858;PMS5003;59713;50.866;4.324;2024-02-26T05:13:35;10;10;
71858;PMS5003;59713;50.866;4.324;2024-02-26T05:14:35;9;9;
71858;PMS5003;59713;50.866;4.324;2024-02-26T05:15:36;9;9;
71858;PMS5003;59713;50.866;4.324;2024-02-26T05:16:35;9;9;
71858;PMS5003;59713;50.866;4.324;2024-02-26T05:16:35;9;9;
71858;PMS5003;59713;50.866;4.324;2024-02-26T05:17:35;10;9;
71858;PMS5003;59713;50.866;4.324;2024-02-26T05:18:35;10;9;
71858;PMS5003;59713;50.866;4.324;2024-02-26T05:19:35;10;9;
71858;PMS5003;59713;50.866;4.324;2024-02-26T05:20:35;12;10;
71858;PMS5003;59713;50.866;4.324;2024-02-26T05:21:35;12;10;
71858;PMS5003;59713;50.866;4.324;2024-02-26T05:22:35;12;10;
71858;PMS5003;59713;50.866;4.324;2024-02-26T05:23:35;12;7;
71858;PMS5003;59713;50.866;4.324;2024-02-26T05:24:37;12;7;
71858;PMS5003;59713;50.866;4.324;2024-02-26T05:25:35;12;7;
71858;PMS5003;59713;50.866;4.324;2024-02-26T05:25:35;12;7;
71858;PMS5003;59713;50.866;4.324;2024-02-26T05:26:35;10;10;
71858;PMS5003;59713;50.866;4.324;2024-02-26T05:27:35;10;10;
71858;PMS5003;59713;50.866;4.324;2024-02-26T05:28:35;10;10;
71858;PMS5003;59713;50.866;4.324;2024-02-26T05:29:35;10;10;
71858;PMS5003;59713;50.866;4.324;2024-02-26T05:30:35;10;10;
71858;PMS5003;59713;50.866;4.324;2024-02-26T05:31:35;10;10;
71858;PMS5003;59713;50.866;4.324;2024-02-26T05:32:35;13;11;
71858;PMS5003;59713;50.866;4.324;2024-02-26T05:33:35;13;11;
71858;PMS5003;59713;50.866;4.324;2024-02-26T05:34:35;13;11;
71858;PMS5003;59713;50.866;4.324;2024-02-26T05:35:36;11;11;
71858;PMS5003;59713;50.866;4.324;2024-02-26T05:36:35;11;11;
71858;PMS5003;59713;50.866;4.324;2024-02-26T05:37:35;11;11;
71858;PMS5003;59713;50.866;4.324;2024-02-26T05:38:35;11;11;
71858;PMS5003;59713;50.866;4.324;2024-02-26T05:39:35;11;11;
71858;PMS5003;59713;50.866;4.324;2024-02-26T05:40:35;11;11;
71858;PMS5003;59713;50.866;4.324;2024-02-26T05:41:35;11;11;
71858;PMS5003;59713;50.866;4.324;2024-02-26T05:42:35;11;11;
71858;PMS5003;59713;50.866;4.324;2024-02-26T05:43:35;11;11;
71858;PMS5003;59713;50.866;4.324;2024-02-26T05:43:35;11;11;
71858;PMS5003;59713;50.866;4.324;2024-02-26T05:44:35;14;13;
71858;PMS5003;59713;50.866;4.324;2024-02-26T05:45:36;14;13;
71858;PMS5003;59713;50.866;4.324;2024-02-26T05:46:35;14;13;
71858;PMS5003;59713;50.866;4.324;2024-02-26T05:47:35;12;10;
71858;PMS5003;59713;50.866;4.324;2024-02-26T05:48:35;12;10;
71858;PMS5003;59713;50.866;4.324;2024-02-26T05:49:35;12;10;
71858;PMS5003;59713;50.866;4.324;2024-02-26T05:50:35;12;12;
71858;PMS5003;59713;50.866;4.324;2024-02-26T05:51:35;12;12;
71858;PMS5003;59713;50.866;4.324;2024-02-26T05:52:35;12;12;
71858;PMS5003;59713;50.866;4.324;2024-02-26T05:52:35;12;12;
71858;PMS5003;59713;50.866;4.324;2024-02-26T05:53:35;15;15;
71858;PMS5003;59713;50.866;4.324;2024-02-26T05:54:35;15;15;
71858;PMS5003;59713;50.866;4.324;2024-02-26T05:55:35;15;15;
71858;PMS5003;59713;50.866;4.324;2024-02-26T05:56:35;20;16;
71858;PMS5003;59713;50.866;4.324;2024-02-26T05:57:35;20;16;
71858;PMS5003;59713;50.866;4.324;2024-02-26T05:58:35;20;16;
71858;PMS5003;59713;50.866;4.324;2024-02-26T05:59:35;14;13;
71858;PMS5003;59713;50.866;4.324;2024-02-26T06:00:35;14;13;
71858;PMS5003;59713;50.866;4.324;2024-02-26T06:01:35;14;13;
71858;PMS5003;59713;50.866;4.324;2024-02-26T06:01:35;14;13;
71858;PMS5003;59713;50.866;4.324;2024-02-26T06:02:35;14;13;
71858;PMS5003;59713;50.866;4.324;2024-02-26T06:03:35;14;13;
71858;PMS5003;59713;50.866;4.324;2024-02-26T06:04:35;14;13;
71858;PMS5003;59713;50.866;4.324;2024-02-26T06:05:35;18;16;
71858;PMS5003;59713;50.866;4.324;2024-02-26T06:06:35;18;16;
71858;PMS5003;59713;50.866;4.324;2024-02-26T06:07:35;18;16;
71858;PMS5003;59713;50.866;4.324;2024-02-26T06:08:35;22;17;
71858;PMS5003;59713;50.866;4.324;2024-02-26T06:09:35;22;17;
71858;PMS5003;59713;50.866;4.324;2024-02-26T06:10:35;22;17;
71858;PMS5003;59713;50.866;4.324;2024-02-26T06:11:35;14;14;
71858;PMS5003;59713;50.866;4.324;2024-02-26T06:11:35;14;14;
71858;PMS5003;59713;50.866;4.324;2024-02-26T06:12:35;14;14;
71858;PMS5003;59713;50.866;4.324;2024-02-26T06:13:35;14;14;